Time;durP1;ratioP1;P1;durP2;ratioP2;P2;SDS_P1;SDS_P2;PMS_P1;PMS_P2;Temp;Humidity;BMP_temperature;BMP_pressure;BME280_temperature;BME280_humidity;BME280_pressure;Samples;Min_cycle;Max_cycle;Signal;HPM_P1;HPM_P2
2023/07/08 00:00:50;;;;;;;6.30;5.70;;;;;;;13.89;100.00;101441.47;4883623;29;20063;-83
2023/07/08 00:03:17;;;;;;;6.15;5.60;;;;;;;13.85;100.00;101445.97;4888634;29;20800;-83
2023/07/08 00:05:45;;;;;;;6.63;5.93;;;;;;;13.78;100.00;101447.00;4848560;29;20045;-84
2023/07/08 00:08:17;;;;;;;6.53;5.93;;;;;;;13.72;100.00;101453.31;4857454;29;20055;-82
2023/07/08 00:10:44;;;;;;;6.18;5.55;;;;;;;13.80;100.00;101442.56;4866755;29;20065;-83
2023/07/08 00:13:10;;;;;;;7.68;5.55;;;;;;;13.77;100.00;101440.81;4872801;29;20067;-84
2023/07/08 00:15:38;;;;;;;6.50;5.90;;;;;;;13.78;100.00;101445.22;4858316;29;20089;-83
2023/07/08 00:18:11;;;;;;;5.68;5.20;;;;;;;13.75;100.00;101447.06;4875877;29;20470;-82
2023/07/08 00:20:41;;;;;;;7.07;6.38;;;;;;;13.65;100.00;101445.50;4861175;29;20080;-82
2023/07/08 00:23:08;;;;;;;7.53;6.30;;;;;;;13.63;100.00;101442.91;4870089;29;20148;-82
2023/07/08 00:25:35;;;;;;;7.28;6.53;;;;;;;13.62;100.00;101445.56;4873319;29;20037;-82
2023/07/08 00:28:04;;;;;;;7.70;5.90;;;;;;;13.53;100.00;101447.50;4860129;29;20045;-82
2023/07/08 00:30:31;;;;;;;7.15;6.10;;;;;;;13.47;100.00;101442.34;4858294;29;20045;-84
2023/07/08 00:32:58;;;;;;;6.55;5.95;;;;;;;13.45;100.00;101441.50;4867695;29;20045;-82
2023/07/08 00:35:33;;;;;;;6.78;6.10;;;;;;;13.42;100.00;101448.63;4874074;29;20038;-82
2023/07/08 00:38:01;;;;;;;6.68;5.90;;;;;;;13.37;100.00;101450.47;4888163;29;20042;-83
2023/07/08 00:40:30;;;;;;;6.47;5.88;;;;;;;13.35;100.00;101447.88;4858641;29;20230;-83
2023/07/08 00:42:59;;;;;;;7.20;6.50;;;;;;;13.33;100.00;101452.34;4868897;29;20107;-83
2023/07/08 00:45:36;;;;;;;6.88;6.10;;;;;;;13.30;100.00;101449.75;4873351;29;20547;-84
2023/07/08 00:48:31;;;;;;;6.78;6.18;;;;;;;13.27;100.00;101449.78;4871436;29;20045;-83
2023/07/08 00:50:58;;;;;;;6.88;6.18;;;;;;;13.24;100.00;101457.81;4873038;29;20041;-84
2023/07/08 00:53:31;;;;;;;7.57;6.85;;;;;;;13.23;100.00;101451.63;4875900;29;20098;-83
2023/07/08 00:56:00;;;;;;;6.68;5.97;;;;;;;13.16;100.00;101444.66;4860368;29;20045;-83
2023/07/08 00:58:35;;;;;;;7.65;6.95;;;;;;;13.15;100.00;101452.66;4841739;29;20041;-84
2023/07/08 01:01:02;;;;;;;;;;;;;;;13.06;100.00;101448.38;4891364;29;20045;-83
2023/07/08 01:03:29;;;;;;;7.85;7.15;;;;;;;13.03;100.00;101451.09;4859843;29;19924;-84
2023/07/08 01:05:59;;;;;;;7.70;6.90;;;;;;;12.99;100.00;101452.06;4874734;29;20044;-83
2023/07/08 01:08:28;;;;;;;7.65;6.80;;;;;;;12.98;100.00;101454.75;4870461;29;20183;-83
2023/07/08 01:11:01;;;;;;;7.18;6.45;;;;;;;12.91;100.00;101454.84;4873388;29;20044;-83
2023/07/08 01:13:32;;;;;;;7.37;6.70;;;;;;;12.92;100.00;101461.88;4862391;29;20044;-83
2023/07/08 01:15:59;;;;;;;7.22;6.53;;;;;;;12.87;100.00;101452.28;4861094;29;20044;-83
2023/07/08 01:18:27;;;;;;;7.90;6.50;;;;;;;12.86;100.00;101454.06;4871997;29;20090;-83
2023/07/08 01:20:55;;;;;;;7.57;6.88;;;;;;;12.84;100.00;101453.19;4860217;29;20069;-83
2023/07/08 01:23:23;;;;;;;7.60;6.65;;;;;;;12.79;100.00;101451.53;4871699;29;20420;-83
2023/07/08 01:25:49;;;;;;;7.10;6.40;;;;;;;12.76;100.00;101449.78;4871804;29;20250;-83
2023/07/08 01:28:16;;;;;;;7.22;6.53;;;;;;;12.70;100.00;101449.91;4873811;29;20113;-83
2023/07/08 01:30:43;;;;;;;7.63;6.93;;;;;;;12.73;100.00;101433.94;4837054;29;20073;-84
2023/07/08 01:33:18;;;;;;;7.57;6.80;;;;;;;12.70;100.00;101447.25;4872731;29;20044;-82
2023/07/08 01:35:46;;;;;;;7.15;6.45;;;;;;;12.66;100.00;101440.25;4874629;29;20041;-82
2023/07/08 01:38:16;;;;;;;6.70;5.85;;;;;;;12.63;100.00;101442.97;4876080;29;20056;-84
2023/07/08 01:40:51;;;;;;;7.32;6.72;;;;;;;12.70;100.00;101438.44;4857137;29;20513;-82
2023/07/08 01:43:18;;;;;;;7.78;6.43;;;;;;;12.73;100.00;101443.69;4859502;29;20079;-82
2023/07/08 01:45:45;;;;;;;7.95;7.13;;;;;;;12.73;100.00;101433.94;4856881;29;20048;-83
2023/07/08 01:48:14;;;;;;;7.45;6.47;;;;;;;12.67;100.00;101434.03;4873632;29;20485;-83
2023/07/08 01:50:51;;;;;;;7.35;6.50;;;;;;;12.63;100.00;101438.53;4871984;29;20171;-83
2023/07/08 01:53:21;;;;;;;7.47;6.78;;;;;;;12.60;100.00;101433.25;4861975;29;20041;-82
2023/07/08 01:55:48;;;;;;;7.70;6.90;;;;;;;12.57;100.00;101440.41;4855137;29;20408;-83
2023/07/08 01:58:15;;;;;;;7.57;6.53;;;;;;;12.51;100.00;101437.84;4874432;29;20045;-82
2023/07/08 02:00:43;;;;;;;7.60;6.80;;;;;;;12.52;100.00;101436.94;4854939;29;20049;-84
2023/07/08 02:03:09;;;;;;;7.15;6.20;;;;;;;12.50;100.00;101439.63;4886539;29;20528;-83
2023/07/08 02:05:36;;;;;;;7.68;6.88;;;;;;;12.51;100.00;101440.47;4865181;29;20235;-82
2023/07/08 02:08:03;;;;;;;7.57;6.75;;;;;;;12.53;100.00;101434.28;4855793;29;20045;-83
2023/07/08 02:10:30;;;;;;;7.57;6.88;;;;;;;12.54;100.00;101433.38;4873147;29;20141;-82
2023/07/08 02:12:57;;;;;;;7.55;6.75;;;;;;;12.50;100.00;101434.31;4874905;29;20416;-83
2023/07/08 02:15:25;;;;;;;7.60;6.50;;;;;;;12.52;100.00;101443.09;4860595;29;20041;-85
2023/07/08 02:17:52;;;;;;;7.15;6.35;;;;;;;12.50;100.00;101436.97;4856326;29;20145;-83
2023/07/08 02:20:19;;;;;;;6.45;5.85;;;;;;;12.48;100.00;101440.53;4860119;29;20056;-83
2023/07/08 02:22:46;;;;;;;7.72;6.93;;;;;;;12.52;100.00;101442.22;4864508;29;20073;-83
2023/07/08 02:25:13;;;;;;;7.85;6.60;;;;;;;12.50;100.00;101431.66;4876521;29;20356;-83
2023/07/08 02:27:40;;;;;;;6.50;5.90;;;;;;;12.49;100.00;101435.22;4876666;29;20493;-83
2023/07/08 02:30:07;;;;;;;8.43;6.80;;;;;;;12.49;100.00;101429.91;4875887;29;20357;-83
2023/07/08 02:32:38;;;;;;;7.10;6.35;;;;;;;12.45;100.00;101435.31;4871295;29;20525;-83
2023/07/08 02:35:07;;;;;;;8.13;6.07;;;;;;;12.42;100.00;101433.56;4878780;29;20045;-84
2023/07/08 02:37:34;;;;;;;7.30;6.47;;;;;;;12.38;100.00;101435.41;4886033;29;20059;-84
2023/07/08 02:40:01;;;;;;;7.13;5.88;;;;;;;12.38;100.00;101430.09;4881669;29;20052;-83
2023/07/08 02:42:27;;;;;;;6.85;6.15;;;;;;;12.33;100.00;101433.69;4875362;29;20057;-86
2023/07/08 02:44:55;;;;;;;6.90;6.22;;;;;;;12.30;100.00;101437.28;4892092;29;20400;-81
2023/07/08 02:47:22;;;;;;;7.03;6.43;;;;;;;12.35;100.00;101437.19;4864692;29;20113;-83
2023/07/08 02:49:50;;;;;;;6.95;5.78;;;;;;;12.34;100.00;101438.09;4848723;29;20107;-81
2023/07/08 02:52:16;;;;;;;7.03;6.32;;;;;;;12.29;100.00;101434.66;4881232;29;20057;-83
2023/07/08 02:54:43;;;;;;;7.45;6.80;;;;;;;12.34;100.00;101441.63;4878030;29;20048;-84
2023/07/08 02:57:10;;;;;;;6.07;5.47;;;;;;;12.35;100.00;101432.78;4873237;29;20049;-87
2023/07/08 02:59:38;;;;;;;7.30;5.55;;;;;;;12.36;100.00;101426.59;4870319;29;20049;-85
2023/07/08 03:02:06;;;;;;;7.38;6.05;;;;;;;12.29;100.00;101432.88;4851226;29;20053;-84
2023/07/08 03:04:35;;;;;;;7.80;7.00;;;;;;;12.25;100.00;101419.69;4847076;29;20325;-84
2023/07/08 03:07:01;;;;;;;8.75;6.55;;;;;;;12.30;100.00;101424.03;4834606;29;20045;-83
2023/07/08 03:09:28;;;;;;;8.18;7.38;;;;;;;12.22;100.00;101425.06;4837298;29;20069;-83
2023/07/08 03:11:55;;;;;;;7.80;6.47;;;;;;;12.25;100.00;101428.53;4846222;29;20343;-85
2023/07/08 03:14:22;;;;;;;7.25;6.13;;;;;;;12.18;100.00;101429.50;4861299;29;20041;-81
2023/07/08 03:16:48;;;;;;;8.30;7.05;;;;;;;12.21;100.00;101431.25;4847956;29;20045;-84
2023/07/08 03:19:17;;;;;;;6.07;5.57;;;;;;;12.14;100.00;101434.88;4848941;29;20045;-86
2023/07/08 03:21:43;;;;;;;6.28;5.45;;;;;;;12.13;100.00;101434.00;4880958;29;20052;-86
2023/07/08 03:24:11;;;;;;;6.80;6.10;;;;;;;12.08;100.00;101428.75;4855801;29;20098;-84
2023/07/08 03:26:38;;;;;;;7.03;6.32;;;;;;;12.09;100.00;101434.94;4874412;29;20051;-82
2023/07/08 03:29:08;;;;;;;7.53;6.03;;;;;;;12.06;100.00;101437.66;4877403;29;20045;-85
2023/07/08 03:31:35;;;;;;;6.90;6.10;;;;;;;12.05;100.00;101438.53;4858627;29;20064;-86
2023/07/08 03:34:02;;;;;;;6.18;5.57;;;;;;;12.02;100.00;101442.13;4862878;29;20057;-83
2023/07/08 03:36:29;;;;;;;7.05;6.07;;;;;;;12.05;100.00;101438.53;4866544;29;20045;-85
2023/07/08 03:38:57;;;;;;;7.93;6.10;;;;;;;12.07;100.00;101439.38;4876814;29;20033;-85
2023/07/08 03:41:24;;;;;;;7.38;6.68;;;;;;;12.11;100.00;101441.13;4879029;29;20123;-85
2023/07/08 03:43:51;;;;;;;6.07;5.47;;;;;;;12.09;100.00;101434.94;4870564;29;20128;-84
2023/07/08 03:46:19;;;;;;;6.53;5.93;;;;;;;12.14;100.00;101433.13;4855363;29;20064;-85
2023/07/08 03:48:47;;;;;;;6.90;5.82;;;;;;;12.11;100.00;101425.22;4867107;29;20041;-85
2023/07/08 03:51:22;;;;;;;6.70;5.97;;;;;;;12.15;100.00;101436.63;4873881;29;20052;-85
2023/07/08 03:53:51;;;;;;;8.15;6.53;;;;;;;12.13;100.00;101427.84;4843717;29;20043;-84
2023/07/08 03:56:20;;;;;;;8.02;5.72;;;;;;;12.17;100.00;101427.75;4855457;29;20405;-83
2023/07/08 03:58:47;;;;;;;6.15;5.55;;;;;;;12.21;100.00;101426.84;4873386;29;20048;-81
2023/07/08 04:01:16;;;;;;;6.68;5.97;;;;;;;12.16;100.00;101433.94;4872803;29;20072;-84
2023/07/08 04:03:44;;;;;;;6.25;5.60;;;;;;;12.18;100.00;101426.84;4870345;29;20049;-80
2023/07/08 04:06:11;;;;;;;7.25;6.50;;;;;;;12.26;100.00;101430.25;4868164;29;20042;-83
2023/07/08 04:08:38;;;;;;;9.93;6.18;;;;;;;12.29;100.00;101430.25;4871677;29;20037;-85
2023/07/08 04:11:04;;;;;;;7.28;6.47;;;;;;;12.32;100.00;101424.88;4854252;29;20057;-85
2023/07/08 04:13:32;;;;;;;8.93;5.95;;;;;;;12.32;100.00;101435.47;4872713;29;20040;-81
2023/07/08 04:16:03;;;;;;;6.45;5.80;;;;;;;12.36;100.00;101431.91;4869811;29;20160;-84
2023/07/08 04:18:30;;;;;;;6.47;5.88;;;;;;;12.36;100.00;101429.25;4850581;29;20393;-82
2023/07/08 04:20:57;;;;;;;6.45;5.85;;;;;;;12.46;100.00;101437.06;4873470;29;20047;-82
2023/07/08 04:23:27;;;;;;;7.25;6.20;;;;;;;12.47;100.00;101438.81;4877739;29;20433;-84
2023/07/08 04:25:55;;;;;;;8.40;6.03;;;;;;;12.50;100.00;101441.38;4875308;29;20075;-82
2023/07/08 04:28:22;;;;;;;7.20;5.72;;;;;;;12.47;100.00;101444.09;4877193;29;20053;-83
2023/07/08 04:30:50;;;;;;;7.15;5.85;;;;;;;12.53;100.00;101436.06;4879989;29;20269;-84
2023/07/08 04:33:18;;;;;;;6.28;5.68;;;;;;;12.58;100.00;101428.88;4864967;29;20044;-82
2023/07/08 04:35:45;;;;;;;6.95;6.25;;;;;;;12.58;100.00;101435.06;4878812;29;20565;-81
2023/07/08 04:38:21;;;;;;;6.32;5.72;;;;;;;12.66;100.00;101432.28;4864844;29;20044;-82
2023/07/08 04:40:49;;;;;;;8.25;6.15;;;;;;;12.65;100.00;101438.50;4861171;29;20105;-82
2023/07/08 04:43:16;;;;;;;7.53;5.80;;;;;;;12.71;100.00;101441.06;4865548;29;20474;-83
2023/07/08 04:45:45;;;;;;;7.10;6.18;;;;;;;12.78;100.00;101444.44;4886796;29;20131;-86
2023/07/08 04:48:16;;;;;;;8.98;6.32;;;;;;;12.87;100.00;101441.66;4875279;29;20118;-83
2023/07/08 04:50:44;;;;;;;6.45;5.85;;;;;;;12.87;100.00;101439.03;4870555;29;20037;-82
2023/07/08 04:53:12;;;;;;;7.30;5.88;;;;;;;12.92;100.00;101438.00;4859683;29;20080;-80
2023/07/08 04:55:47;;;;;;;6.60;5.90;;;;;;;12.94;100.00;101430.91;4866751;29;20575;-82
2023/07/08 04:58:13;;;;;;;6.28;5.68;;;;;;;13.01;100.00;101428.16;4861399;29;20101;-83
2023/07/08 05:00:40;;;;;;;7.00;5.82;;;;;;;13.09;100.00;101434.19;4880321;29;20055;-84
2023/07/08 05:03:07;;;;;;;7.43;5.97;;;;;;;13.35;100.00;101434.59;4871118;29;20045;-80
2023/07/08 05:05:33;;;;;;;5.88;5.20;;;;;;;13.60;100.00;101427.00;4866637;29;20052;-82
2023/07/08 05:08:00;;;;;;;8.40;5.90;;;;;;;13.99;100.00;101430.59;4882316;29;20053;-84
2023/07/08 05:10:27;;;;;;;8.02;5.28;;;;;;;14.10;100.00;101438.31;4879594;29;20049;-83
2023/07/08 05:12:54;;;;;;;6.63;5.68;;;;;;;14.11;100.00;101440.06;4864348;29;20109;-83
2023/07/08 05:15:20;;;;;;;6.97;6.00;;;;;;;14.09;100.00;101440.09;4867512;29;21060;-83
2023/07/08 05:17:47;;;;;;;7.88;5.20;;;;;;;14.15;100.00;101431.13;4882709;29;20041;-83
2023/07/08 05:20:14;;;;;;;6.40;5.68;;;;;;;14.31;100.00;101429.88;4882889;29;20041;-81
2023/07/08 05:22:42;;;;;;;6.50;5.63;;;;;;;14.33;100.00;101430.69;4875615;29;20065;-82
2023/07/08 05:25:12;;;;;;;6.35;5.18;;;;;;;14.44;100.00;101427.78;4864288;29;20053;-81
2023/07/08 05:27:39;;;;;;;7.30;5.60;;;;;;;14.40;100.00;101431.44;4886523;29;20136;-82
2023/07/08 05:30:14;;;;;;;5.80;5.20;;;;;;;14.46;100.00;101425.09;4888696;29;20061;-80
2023/07/08 05:32:40;;;;;;;5.72;5.10;;;;;;;14.51;100.00;101432.06;4872295;29;20097;-83
2023/07/08 05:35:08;;;;;;;6.20;5.47;;;;;;;14.66;100.00;101424.63;4887106;29;20063;-81
2023/07/08 05:37:36;;;;;;;8.43;5.13;;;;;;;14.85;100.00;101433.88;4866076;29;20809;-84
2023/07/08 05:40:04;;;;;;;5.78;4.90;;;;;;;15.10;100.00;101434.13;4870615;29;20041;-81
2023/07/08 05:42:31;;;;;;;8.10;5.20;;;;;;;15.55;100.00;101429.28;4847307;29;20077;-81
2023/07/08 05:44:58;;;;;;;5.32;4.25;;;;;;;17.78;100.00;101421.91;4876303;29;20117;-80
2023/07/08 05:47:25;;;;;;;5.35;4.07;;;;;;;20.48;85.89;101418.13;4868833;29;20521;-84
2023/07/08 05:49:52;;;;;;;3.88;3.47;;;;;;;22.77;66.11;101419.09;4856818;29;20141;-80
2023/07/08 05:52:18;;;;;;;3.65;3.20;;;;;;;24.64;56.59;101412.75;4862007;29;20349;-84
2023/07/08 05:54:45;;;;;;;6.65;4.10;;;;;;;26.62;48.87;101414.78;4872722;29;20325;-84
2023/07/08 05:57:13;;;;;;;5.65;3.53;;;;;;;27.43;46.10;101418.50;4854405;29;20048;-85
2023/07/08 05:59:42;;;;;;;9.15;3.40;;;;;;;28.49;42.70;101414.34;4887162;29;20112;-84
2023/07/08 06:02:12;;;;;;;3.92;3.20;;;;;;;29.24;40.00;101416.09;4876253;29;20052;-83
2023/07/08 06:04:40;;;;;;;5.53;3.30;;;;;;;29.54;39.99;101404.41;4887583;29;20048;-85
2023/07/08 06:07:06;;;;;;;4.30;3.30;;;;;;;29.82;38.17;101410.97;4893160;29;20055;-84
2023/07/08 06:09:34;;;;;;;4.05;3.28;;;;;;;28.85;37.62;101412.22;4872172;29;20068;-83
2023/07/08 06:12:00;;;;;;;3.95;3.40;;;;;;;28.65;40.69;101410.31;4886711;29;20049;-83
2023/07/08 06:14:27;;;;;;;3.50;3.03;;;;;;;28.07;41.80;101409.72;4882074;29;20045;-83
2023/07/08 06:16:55;;;;;;;4.13;3.72;;;;;;;27.48;43.31;101408.13;4897124;29;20127;-81
2023/07/08 06:19:22;;;;;;;4.15;3.38;;;;;;;26.92;44.19;101408.84;4896466;29;20025;-86
2023/07/08 06:21:48;;;;;;;4.18;3.78;;;;;;;26.30;43.74;101417.16;4903017;29;20029;-84
2023/07/08 06:24:15;;;;;;;4.15;3.72;;;;;;;25.95;47.37;101414.34;4893577;29;20037;-86
2023/07/08 06:26:42;;;;;;;5.43;3.83;;;;;;;25.52;48.91;101417.41;4901573;29;20040;-85
2023/07/08 06:29:09;;;;;;;4.03;3.53;;;;;;;25.20;50.99;101419.69;4889970;29;20041;-86
2023/07/08 06:31:36;;;;;;;5.30;3.90;;;;;;;24.99;52.58;101430.13;4884958;29;20049;-87
2023/07/08 06:34:04;;;;;;;4.20;3.63;;;;;;;24.73;50.34;101428.34;4882017;29;20041;-85
2023/07/08 06:36:31;;;;;;;3.90;3.50;;;;;;;24.70;48.44;101429.38;4886038;29;20052;-83
2023/07/08 06:38:57;;;;;;;4.32;3.35;;;;;;;24.65;48.95;101420.75;4873235;29;20105;-85
2023/07/08 06:41:24;;;;;;;3.75;3.28;;;;;;;24.64;48.52;101420.84;4886902;29;20176;-85
2023/07/08 06:43:51;;;;;;;3.40;3.10;;;;;;;24.81;47.03;101425.13;4890028;29;20032;-84
2023/07/08 06:46:18;;;;;;;3.55;3.25;;;;;;;24.93;48.34;101418.84;4874679;29;20041;-85
2023/07/08 06:48:46;;;;;;;4.70;3.50;;;;;;;25.00;50.01;101425.59;4875074;29;20203;-85
2023/07/08 06:51:12;;;;;;;3.63;3.00;;;;;;;24.88;47.55;101427.28;4886565;29;20140;-84
2023/07/08 06:53:39;;;;;;;4.30;3.47;;;;;;;24.78;44.84;101431.56;4894494;29;20144;-86
2023/07/08 06:56:06;;;;;;;3.28;2.97;;;;;;;24.89;44.89;101418.22;4876781;29;20045;-85
2023/07/08 06:58:32;;;;;;;3.58;3.03;;;;;;;24.83;42.58;101415.94;4893150;29;20045;-84
2023/07/08 07:00:59;;;;;;;3.22;2.95;;;;;;;24.75;43.99;101417.41;4890694;29;20066;-85
2023/07/08 07:03:30;;;;;;;5.22;3.33;;;;;;;24.73;43.55;101413.97;4891629;29;20152;-83
2023/07/08 07:05:56;;;;;;;5.03;3.38;;;;;;;24.82;43.62;101408.78;4887496;29;20089;-84
2023/07/08 07:08:23;;;;;;;7.70;3.17;;;;;;;24.93;45.43;101406.22;4894918;29;20128;-85
2023/07/08 07:10:50;;;;;;;5.07;3.35;;;;;;;25.02;43.72;101415.53;4880316;29;20056;-87
2023/07/08 07:13:16;;;;;;;4.65;3.22;;;;;;;25.10;43.16;101415.03;4892288;29;20041;-85
2023/07/08 07:15:43;;;;;;;4.25;3.20;;;;;;;25.01;43.39;101419.19;4861289;29;20045;-85
2023/07/08 07:18:10;;;;;;;3.60;2.90;;;;;;;25.14;43.18;101419.22;4895733;29;20037;-85
2023/07/08 07:20:37;;;;;;;3.35;3.05;;;;;;;25.28;42.59;101416.44;4895036;29;20029;-86
2023/07/08 07:23:04;;;;;;;4.30;3.17;;;;;;;25.45;41.52;101429.63;4896008;29;20029;-86
2023/07/08 07:25:31;;;;;;;3.47;3.08;;;;;;;25.52;40.90;101419.25;4897419;29;20040;-85
2023/07/08 07:27:58;;;;;;;3.97;3.13;;;;;;;25.53;41.02;101421.84;4891121;29;20041;-86
2023/07/08 07:30:25;;;;;;;4.88;3.45;;;;;;;25.76;43.33;101417.53;4877829;29;20048;-85
2023/07/08 07:32:52;;;;;;;3.38;3.08;;;;;;;25.91;39.48;101422.81;4889006;29;20041;-84
2023/07/08 07:35:18;;;;;;;6.60;3.40;;;;;;;26.06;40.50;101430.69;4893736;29;20041;-84
2023/07/08 07:37:45;;;;;;;3.22;2.90;;;;;;;26.00;38.11;101427.56;4891617;29;20104;-85
2023/07/08 07:40:14;;;;;;;4.22;3.55;;;;;;;26.21;38.81;101423.25;4873213;29;20055;-86
2023/07/08 07:42:43;;;;;;;3.53;2.97;;;;;;;26.42;39.77;101422.69;4891219;29;20071;-83
2023/07/08 07:45:10;;;;;;;3.80;3.25;;;;;;;26.55;38.86;101418.94;4874925;29;20055;-84
2023/07/08 07:47:37;;;;;;;3.45;2.90;;;;;;;26.70;40.46;101416.03;4880172;29;20107;-86
2023/07/08 07:50:05;;;;;;;3.45;3.15;;;;;;;26.81;37.42;101416.94;4898073;29;20052;-84
2023/07/08 07:52:32;;;;;;;3.72;2.90;;;;;;;26.96;39.59;101417.59;4883715;29;20092;-83
2023/07/08 07:54:59;;;;;;;3.97;2.75;;;;;;;27.15;38.95;101422.50;4886343;29;20414;-85
2023/07/08 07:57:26;;;;;;;4.55;3.53;;;;;;;27.29;38.57;101424.13;4880424;29;20034;-84
2023/07/08 07:59:52;;;;;;;4.05;3.00;;;;;;;27.06;36.93;101417.78;4885507;29;20064;-85
2023/07/08 08:02:19;;;;;;;27.48;6.13;;;;;;;27.26;38.24;101418.97;4899790;29;20045;-85
2023/07/08 08:04:46;;;;;;;9.23;4.53;;;;;;;27.46;39.55;101418.22;4858767;29;20044;-85
2023/07/08 08:07:13;;;;;;;3.92;2.88;;;;;;;27.57;37.64;101418.22;4880647;29;20108;-86
2023/07/08 08:09:39;;;;;;;4.50;3.42;;;;;;;27.73;38.15;101412.47;4879979;29;20049;-85
2023/07/08 08:12:09;;;;;;;4.97;3.17;;;;;;;27.48;38.42;101421.69;4896510;29;20061;-84
2023/07/08 08:14:36;;;;;;;3.47;3.17;;;;;;;27.75;38.54;101416.81;4905222;29;20041;-86
2023/07/08 08:17:04;;;;;;;3.00;2.78;;;;;;;27.57;36.90;101426.38;4884336;29;20127;-85
2023/07/08 08:19:31;;;;;;;3.22;2.97;;;;;;;27.66;37.81;101416.63;4887231;29;20044;-83
2023/07/08 08:21:58;;;;;;;4.93;3.15;;;;;;;27.89;37.33;101422.97;4866385;29;20073;-85
2023/07/08 08:24:25;;;;;;;4.65;3.47;;;;;;;28.05;36.46;101418.88;4872817;29;20049;-83
2023/07/08 08:26:54;;;;;;;3.42;3.13;;;;;;;28.24;35.84;101420.91;4879470;29;20053;-85
2023/07/08 08:29:21;;;;;;;3.63;3.28;;;;;;;28.26;37.74;101416.25;4869947;29;20072;-83
2023/07/08 08:31:48;;;;;;;5.32;3.35;;;;;;;28.42;36.42;101417.69;4887867;29;20161;-84
2023/07/08 08:34:14;;;;;;;3.67;3.10;;;;;;;28.57;35.80;101411.84;4893621;29;20053;-84
2023/07/08 08:36:42;;;;;;;4.25;3.10;;;;;;;28.42;35.68;101414.97;4892563;29;20143;-83
2023/07/08 08:39:09;;;;;;;3.00;2.70;;;;;;;28.53;35.89;101413.09;4869638;29;20033;-81
2023/07/08 08:41:37;;;;;;;3.65;3.08;;;;;;;28.60;34.80;101410.72;4893839;29;20067;-84
2023/07/08 08:44:05;;;;;;;3.35;3.05;;;;;;;28.91;36.83;101406.28;4894193;29;20032;-86
2023/07/08 08:46:38;;;;;;;42.35;6.45;;;;;;;29.19;36.05;101412.94;4889683;29;20049;-84
2023/07/08 08:49:17;;;;;;;3.42;3.00;;;;;;;29.29;33.84;101413.84;4880912;29;20069;-83
2023/07/08 08:51:44;;;;;;;3.13;2.67;;;;;;;29.47;34.89;101421.38;4908917;29;20055;-82
2023/07/08 08:54:11;;;;;;;4.40;3.20;;;;;;;29.36;33.92;101412.31;4877521;29;20063;-83
2023/07/08 08:57:06;;;;;;;25.33;6.65;;;;;;;29.19;34.24;101420.22;4884670;29;20049;-82
2023/07/08 08:59:49;;;;;;;3.22;2.80;;;;;;;29.46;32.68;101414.22;4899793;29;20073;-86
2023/07/08 09:02:50;;;;;;;3.33;3.03;;;;;;;29.55;31.02;101419.75;4883762;29;20518;-85
2023/07/08 09:05:18;;;;;;;14.05;4.05;;;;;;;29.69;34.27;101413.09;4898012;29;20079;-82
2023/07/08 09:07:45;;;;;;;4.63;3.20;;;;;;;29.65;33.33;101411.63;4898685;29;20063;-87
2023/07/08 09:10:26;;;;;;;3.10;2.80;;;;;;;30.00;34.77;101412.03;4901715;29;20045;-82
2023/07/08 09:12:55;;;;;;;3.67;3.38;;;;;;;28.76;33.53;101407.59;4901743;29;20037;-85
2023/07/08 09:15:22;;;;;;;3.60;3.30;;;;;;;29.32;32.04;101401.81;4892510;29;20055;-82
2023/07/08 09:17:50;;;;;;;13.20;4.60;;;;;;;29.50;32.15;101400.22;4883126;29;20064;-83
2023/07/08 09:20:30;;;;;;;3.83;3.15;;;;;;;29.34;30.92;101397.94;4892370;29;20045;-84
2023/07/08 09:23:20;;;;;;;3.10;2.80;;;;;;;29.75;31.72;101395.31;4919965;29;20040;-81
2023/07/08 09:25:59;;;;;;;3.38;2.80;;;;;;;30.04;33.65;101400.88;4885340;29;20788;-84
2023/07/08 09:28:43;;;;;;;4.05;2.95;;;;;;;30.24;31.51;101403.50;4890364;29;20040;-83
2023/07/08 09:31:22;;;;;;;3.38;2.58;;;;;;;30.39;32.54;101403.97;4886868;29;20021;-81
2023/07/08 09:33:54;;;;;;;3.33;3.03;;;;;;;30.44;30.04;101404.41;4876293;29;20065;-81
2023/07/08 09:36:24;;;;;;;3.00;2.70;;;;;;;30.63;30.85;101398.09;4886500;29;20543;-84
2023/07/08 09:38:51;;;;;;;7.15;3.20;;;;;;;30.74;29.41;101394.41;4866247;29;20089;-83
2023/07/08 09:41:33;;;;;;;4.75;2.97;;;;;;;30.83;30.34;101383.47;4886132;29;20044;-84
2023/07/08 09:44:14;;;;;;;3.25;2.95;;;;;;;30.91;30.50;101390.94;4878853;29;20203;-85
2023/07/08 09:46:41;;;;;;;3.95;2.85;;;;;;;30.41;30.34;101385.59;4846496;29;20112;-85
2023/07/08 09:49:16;;;;;;;3.78;2.95;;;;;;;30.41;30.37;101385.59;4870502;29;20053;-85
2023/07/08 09:51:44;;;;;;;3.72;3.42;;;;;;;30.72;29.82;101388.22;4868120;29;20037;-84
2023/07/08 09:54:11;;;;;;;11.55;4.03;;;;;;;30.89;30.53;101392.09;4856512;29;20050;-84
2023/07/08 09:56:43;;;;;;;3.65;3.35;;;;;;;30.25;31.19;101391.59;4875918;29;20041;-84
2023/07/08 09:59:13;;;;;;;3.10;2.75;;;;;;;30.71;30.94;101391.97;4857397;29;20069;-84
2023/07/08 10:01:41;;;;;;;3.40;2.90;;;;;;;30.83;29.82;101388.91;4878638;29;20100;-84
2023/07/08 10:04:07;;;;;;;3.47;2.95;;;;;;;30.92;28.35;101386.31;4862699;29;20081;-84
2023/07/08 10:06:35;;;;;;;4.65;2.88;;;;;;;30.92;29.40;101384.47;4874384;29;20153;-83
2023/07/08 10:09:13;;;;;;;3.60;3.03;;;;;;;31.10;29.81;101384.56;4861944;29;20064;-84
2023/07/08 10:11:47;;;;;;;4.05;3.00;;;;;;;31.22;29.41;101383.44;4875043;29;20089;-83
2023/07/08 10:14:25;;;;;;;2.88;2.55;;;;;;;31.05;29.35;101389.63;4875808;29;20087;-82
2023/07/08 10:16:52;;;;;;;3.20;2.90;;;;;;;31.19;28.32;101389.13;4865686;29;20048;-85
2023/07/08 10:19:20;;;;;;;3.60;3.20;;;;;;;31.06;27.83;101381.28;4879925;29;20052;-82
2023/07/08 10:21:53;;;;;;;3.67;3.22;;;;;;;31.37;28.93;101381.97;4875097;29;20049;-83
2023/07/08 10:24:34;;;;;;;3.47;2.78;;;;;;;31.35;28.47;101378.50;4871274;29;20049;-84
2023/07/08 10:27:12;;;;;;;4.15;2.90;;;;;;;30.43;28.64;101382.72;4878708;29;20048;-85
2023/07/08 10:29:53;;;;;;;3.25;2.95;;;;;;;30.89;28.40;101381.19;4859907;29;20097;-85
2023/07/08 10:32:41;;;;;;;2.95;2.65;;;;;;;31.20;29.42;101390.03;4861795;29;20052;-82
2023/07/08 10:35:17;;;;;;;5.50;3.00;;;;;;;31.34;27.48;101382.25;4880117;29;20056;-84
2023/07/08 10:37:53;;;;;;;4.97;2.83;;;;;;;31.22;28.51;101380.72;4888575;29;20038;-84
2023/07/08 10:40:31;;;;;;;3.75;3.00;;;;;;;31.39;28.69;101379.06;4880519;29;20505;-84
2023/07/08 10:43:20;;;;;;;2.90;2.58;;;;;;;31.21;27.72;101376.25;4877832;29;20041;-83
2023/07/08 10:46:15;;;;;;;3.95;3.00;;;;;;;31.03;27.92;101380.72;4857668;29;20049;-84
2023/07/08 10:49:04;;;;;;;2.92;2.47;;;;;;;31.08;28.75;101381.13;4860180;29;20120;-85
2023/07/08 10:51:33;;;;;;;3.15;2.75;;;;;;;31.33;29.21;101368.75;4868530;29;20583;-84
2023/07/08 10:54:17;;;;;;;3.72;3.03;;;;;;;31.40;28.74;101366.28;4876269;29;20346;-82
2023/07/08 10:57:30;;;;;;;3.25;2.67;;;;;;;31.45;28.28;101369.41;4886294;29;20060;-85
2023/07/08 11:00:18;;;;;;;4.82;2.85;;;;;;;31.37;28.76;101362.84;4906396;29;20065;-82
2023/07/08 11:03:04;;;;;;;3.13;2.83;;;;;;;30.59;27.92;101361.19;4871376;29;20049;-85
2023/07/08 11:05:40;;;;;;;4.80;2.85;;;;;;;30.77;28.81;101358.63;4863141;29;20045;-81
2023/07/08 11:08:23;;;;;;;3.10;2.80;;;;;;;31.32;29.08;101354.22;4870395;29;20072;-84
2023/07/08 11:10:53;;;;;;;3.03;2.83;;;;;;;31.57;27.71;101349.97;4867249;29;20131;-83
2023/07/08 11:13:45;;;;;;;3.60;3.30;;;;;;;31.66;28.96;101353.66;4878168;29;20423;-82
2023/07/08 11:16:32;;;;;;;3.27;2.77;;;;;;;31.35;28.10;101355.78;4868456;29;20113;-83
2023/07/08 11:19:20;;;;;;;3.65;3.35;;;;;;;31.31;27.13;101354.38;4883720;29;20746;-87
2023/07/08 11:21:51;;;;;;;3.55;2.60;;;;;;;31.52;27.54;101348.69;4885450;29;20069;-81
2023/07/08 11:24:22;;;;;;;3.10;2.80;;;;;;;31.61;27.74;101339.56;4869517;29;20255;-84
2023/07/08 11:26:53;;;;;;;3.70;2.65;;;;;;;31.79;27.55;101354.19;4865504;29;20079;-81
2023/07/08 11:29:26;;;;;;;4.00;3.20;;;;;;;31.78;27.69;101343.41;4861748;29;20360;-81
2023/07/08 11:31:54;;;;;;;3.05;2.80;;;;;;;31.55;26.89;101343.78;4867813;29;20050;-85
2023/07/08 11:34:22;;;;;;;5.18;2.95;;;;;;;31.44;27.52;101330.31;4883076;29;20064;-85